Airfield :
LOGIN :

Register | Disclaimer

   EN    FR    IT 

 










Legend :    VFR   Marginal VFR   IFR   Intensive IFR   Very Intensive IFR
Visi :
Ceiling :
>= 8 km
>= 3000ft
5 to 8 km
1000 to 3000 ft
1500m to 5 km
500 to 1000 ft
800 to 1500m
200 to 500 ft
< 800m
< 200 ft
Symbols :   Thunderstorms  Fog  Heavy snow  Heavy precipitations  Wind > 20 kt
SIGMETs :     Misc.  Thunderstorms  Icing  Turbulence  Mountain Waves  Volcanic Ashes







- Airport Elevation : 247 ft
- IATA code : BLL


EKBI - Billund

CURRENT METAR :
  • 181750Z AUTO 19009KT 160V220 9999 BKN014/// BKN039/// 08/05 Q1012

EXPIRED METARs :
  • 181720Z AUTO 19008KT 9999 BKN040/// 09/05 Q1012
  • 181650Z AUTO 19006KT 9999 BKN038/// 09/07 Q1013
  • 181620Z AUTO 20005KT 170V240 9999 SCT014/// BKN039/// 09/07 Q1013
  • 181550Z AUTO 20004KT 9999 FEW016/// BKN041/// OVC053/// 09/07 Q1013
  • 181520Z AUTO 21005KT 9999 BKN017/// BKN041/// BKN054/// 10/07 Q1013

TAF TAF EKBI
Valid from the 18 at 18:00 until the 19 at 18:00 UTC


181707Z 1818/1918 21010KT 9000 BKN030
TEMPO 1820/1824 2000 BR BKN002
TEMPO 1900/1909 4000 -RADZ BKN008
TEMPO 1909/1912 26018G28KT SHRA BKN012 SCT020CB
TEMPO 1912/1918 27018G28KT
No reported NOTAMs for that airfield.



MET'MAP, your aeronautical weather chart ! - Copyright ORBIFLY December 2007 - Disclaimer

ORBIFLY MET'MAP TEAM :

Programming & Development : Alexandra Zaïnal
Concept & Development : Baudouin d'Aumeries
Co-Development & Prog : Marc-Olivier Méhu
Technical & hardware support : Manuel Goepfert

Contact : metmap@orbifly.com




SOURCES & CREDITS :

   NOAA